createdAt,value
2023-05-13T00:00:39.339Z,6.03
2023-05-13T00:03:05.934Z,6.20
2023-05-13T00:05:32.492Z,6.37
2023-05-13T00:08:02.111Z,7.00
2023-05-13T00:10:28.711Z,7.20
2023-05-13T00:12:55.131Z,6.60
2023-05-13T00:15:21.714Z,6.47
2023-05-13T00:17:48.169Z,6.40
2023-05-13T00:20:14.710Z,6.50
2023-05-13T00:22:41.241Z,7.10
2023-05-13T00:25:08.258Z,7.03
2023-05-13T00:27:35.299Z,7.90
2023-05-13T00:30:01.797Z,7.03
2023-05-13T00:32:28.411Z,7.20
2023-05-13T00:34:54.931Z,6.80
2023-05-13T00:37:21.408Z,8.00
2023-05-13T00:39:48.412Z,6.90
2023-05-13T00:42:15.522Z,7.37
2023-05-13T00:44:42.258Z,8.07
2023-05-13T00:47:11.252Z,6.90
2023-05-13T00:49:37.765Z,7.50
2023-05-13T00:52:04.775Z,7.87
2023-05-13T00:54:31.302Z,7.63
2023-05-13T00:56:58.356Z,7.73
2023-05-13T00:59:26.925Z,8.33
2023-05-13T01:02:02.442Z,7.07
2023-05-13T01:04:59.881Z,8.20
2023-05-13T01:07:34.716Z,7.57
2023-05-13T01:10:09.066Z,7.90
2023-05-13T01:12:43.559Z,7.90
2023-05-13T01:15:16.972Z,8.40
2023-05-13T01:17:53.892Z,8.60
2023-05-13T01:20:22.955Z,8.93
2023-05-13T01:22:49.698Z,8.23
2023-05-13T01:25:16.168Z,8.67
2023-05-13T01:27:42.735Z,8.80
2023-05-13T01:30:09.925Z,8.40
2023-05-13T01:32:38.023Z,8.30
2023-05-13T01:35:06.036Z,9.87
2023-05-13T01:37:32.957Z,9.40
2023-05-13T01:39:59.612Z,9.00
2023-05-13T01:42:29.633Z,9.90
2023-05-13T01:44:56.222Z,10.17
2023-05-13T01:47:22.665Z,9.33
2023-05-13T01:49:49.205Z,9.53
2023-05-13T01:52:15.606Z,8.70
2023-05-13T01:54:42.096Z,9.77
2023-05-13T01:57:08.636Z,9.30
2023-05-13T01:59:35.113Z,9.60
2023-05-13T02:02:01.817Z,10.27
2023-05-13T02:04:28.443Z,9.40
2023-05-13T02:06:54.867Z,10.40
2023-05-13T02:09:21.361Z,10.10
2023-05-13T02:11:47.963Z,10.13
2023-05-13T02:14:14.537Z,10.80
2023-05-13T02:16:41.014Z,10.87
2023-05-13T02:19:07.821Z,11.40
2023-05-13T02:21:34.333Z,10.10
2023-05-13T02:24:00.988Z,11.07
2023-05-13T02:26:27.672Z,11.10
2023-05-13T02:28:54.108Z,11.73
2023-05-13T02:31:20.727Z,11.30
2023-05-13T02:33:47.676Z,10.07
2023-05-13T02:36:14.098Z,11.10
2023-05-13T02:38:40.582Z,10.87
2023-05-13T02:41:07.129Z,10.63
2023-05-13T02:43:34.089Z,12.03
2023-05-13T02:46:00.812Z,10.80
2023-05-13T02:48:27.340Z,12.17
2023-05-13T02:50:53.890Z,10.03
2023-05-13T02:53:20.384Z,10.60
2023-05-13T02:55:46.894Z,9.50
2023-05-13T02:58:13.474Z,10.70
2023-05-13T03:00:39.892Z,9.70
2023-05-13T03:03:06.496Z,9.77
2023-05-13T03:05:33.086Z,9.97
2023-05-13T03:07:59.507Z,9.90
2023-05-13T03:10:26.033Z,8.77
2023-05-13T03:12:52.538Z,9.60
2023-05-13T03:15:19.195Z,9.93
2023-05-13T03:17:45.740Z,10.93
2023-05-13T03:20:12.537Z,10.30
2023-05-13T03:22:39.141Z,9.70
2023-05-13T03:25:07.093Z,9.47
2023-05-13T03:27:33.675Z,9.67
2023-05-13T03:30:00.150Z,9.57
2023-05-13T03:32:30.555Z,10.27
2023-05-13T03:34:58.067Z,10.53
2023-05-13T03:37:24.695Z,9.83
2023-05-13T03:39:51.522Z,10.57
2023-05-13T03:42:18.467Z,9.30
2023-05-13T03:44:44.882Z,10.20
2023-05-13T03:47:11.365Z,8.90
2023-05-13T03:49:37.836Z,9.60
2023-05-13T03:52:04.506Z,8.90
2023-05-13T03:54:30.907Z,9.83
2023-05-13T03:56:57.352Z,9.77
2023-05-13T03:59:24.209Z,9.10
2023-05-13T04:01:51.045Z,9.43
2023-05-13T04:04:17.496Z,9.70
2023-05-13T04:06:43.907Z,9.77
2023-05-13T04:09:10.485Z,9.40
2023-05-13T04:11:36.922Z,9.13
2023-05-13T04:14:03.390Z,9.40
2023-05-13T04:16:29.910Z,8.80
2023-05-13T04:18:56.413Z,9.63
2023-05-13T04:21:22.843Z,9.43
2023-05-13T04:23:49.344Z,9.83
2023-05-13T04:26:15.776Z,9.57
2023-05-13T04:28:42.250Z,8.97
2023-05-13T04:31:08.774Z,9.73
2023-05-13T04:33:35.315Z,10.20
2023-05-13T04:36:01.835Z,9.03
2023-05-13T04:38:28.281Z,10.10
2023-05-13T04:40:54.764Z,10.47
2023-05-13T04:43:21.270Z,9.53
2023-05-13T04:45:49.129Z,10.27
2023-05-13T04:48:16.287Z,9.70
2023-05-13T04:50:46.813Z,10.40
2023-05-13T04:53:14.694Z,10.10
2023-05-13T04:55:41.312Z,10.43
2023-05-13T04:58:07.763Z,10.03
2023-05-13T05:00:34.200Z,9.33
2023-05-13T05:03:00.695Z,10.70
2023-05-13T05:05:27.116Z,9.90
2023-05-13T05:07:53.586Z,10.20
2023-05-13T05:10:20.372Z,10.47
2023-05-13T05:12:47.012Z,10.43
2023-05-13T05:15:15.842Z,11.20
2023-05-13T05:17:43.651Z,10.47
2023-05-13T05:20:11.180Z,10.20
2023-05-13T05:22:38.350Z,11.10
2023-05-13T05:25:05.313Z,10.60
2023-05-13T05:27:31.750Z,15.00
2023-05-13T05:29:58.289Z,13.00
2023-05-13T05:32:24.933Z,10.37
2023-05-13T05:34:51.545Z,10.40
2023-05-13T05:37:18.043Z,10.43
2023-05-13T05:39:44.480Z,9.93
2023-05-13T05:42:11.471Z,9.33
2023-05-13T05:44:37.896Z,8.90
2023-05-13T05:47:04.499Z,9.20
2023-05-13T05:49:30.902Z,8.50
2023-05-13T05:51:57.408Z,9.67
2023-05-13T05:54:23.887Z,8.90
2023-05-13T05:56:50.386Z,8.70
2023-05-13T05:59:16.803Z,8.70
2023-05-13T06:01:43.280Z,8.27
2023-05-13T06:04:09.921Z,9.13
2023-05-13T06:06:36.632Z,7.80
2023-05-13T06:09:03.166Z,9.00
2023-05-13T06:11:29.596Z,9.00
2023-05-13T06:13:57.523Z,8.37
2023-05-13T06:16:24.245Z,9.10
2023-05-13T06:18:51.049Z,9.13
2023-05-13T06:21:17.583Z,9.13
2023-05-13T06:23:44.057Z,8.40
2023-05-13T06:26:10.592Z,16.57
2023-05-13T06:28:37.069Z,24.17
2023-05-13T06:31:03.635Z,13.30
2023-05-13T06:33:30.230Z,8.20
2023-05-13T06:35:56.802Z,8.30
2023-05-13T06:38:23.239Z,8.77
2023-05-13T06:40:49.656Z,8.40
2023-05-13T06:43:16.514Z,8.30
2023-05-13T06:45:43.086Z,8.53
2023-05-13T06:48:09.619Z,7.93
2023-05-13T06:50:36.194Z,9.10
2023-05-13T06:53:02.754Z,7.40
2023-05-13T06:55:29.319Z,7.27
2023-05-13T06:57:55.780Z,8.50
2023-05-13T07:00:22.740Z,7.70
2023-05-13T07:02:49.358Z,7.10
2023-05-13T07:05:15.835Z,7.50
2023-05-13T07:07:43.316Z,7.40
2023-05-13T07:10:10.138Z,7.03
2023-05-13T07:12:36.677Z,6.30
2023-05-13T07:15:03.267Z,6.90
2023-05-13T07:17:31.302Z,7.07
2023-05-13T07:19:57.876Z,6.77
2023-05-13T07:22:24.496Z,6.33
2023-05-13T07:24:51.033Z,6.80
2023-05-13T07:27:17.525Z,7.30
2023-05-13T07:29:43.999Z,6.50
2023-05-13T07:32:10.643Z,7.33
2023-05-13T07:34:37.331Z,6.63
2023-05-13T07:37:04.588Z,5.67
2023-05-13T07:39:31.181Z,6.07
2023-05-13T07:41:57.594Z,5.90
2023-05-13T07:44:24.224Z,6.20
2023-05-13T07:46:53.464Z,5.40
2023-05-13T07:49:21.205Z,6.00
2023-05-13T07:51:47.722Z,6.30
2023-05-13T07:54:14.183Z,6.27
2023-05-13T07:56:40.643Z,7.40
2023-05-13T07:59:07.074Z,7.50
2023-05-13T08:01:33.566Z,7.27
2023-05-13T08:04:00.585Z,6.70
2023-05-13T08:06:28.318Z,5.40
2023-05-13T08:08:54.810Z,5.60
2023-05-13T08:11:21.829Z,6.20
2023-05-13T08:13:48.241Z,5.50
2023-05-13T08:16:14.690Z,6.13
2023-05-13T08:18:41.206Z,7.30
2023-05-13T08:21:07.692Z,6.57
2023-05-13T08:23:44.811Z,6.03
2023-05-13T08:26:13.177Z,6.00
2023-05-13T08:28:39.666Z,5.77
2023-05-13T08:31:06.327Z,6.30
2023-05-13T08:33:32.924Z,6.27
2023-05-13T08:36:00.881Z,6.27
2023-05-13T08:38:27.335Z,6.60
2023-05-13T08:40:53.951Z,5.43
2023-05-13T08:43:23.686Z,6.27
2023-05-13T08:45:52.232Z,5.77
2023-05-13T08:48:19.854Z,5.90
2023-05-13T08:50:47.085Z,5.90
2023-05-13T08:53:13.759Z,5.53
2023-05-13T08:55:40.494Z,5.50
2023-05-13T08:58:07.435Z,5.43
2023-05-13T09:00:37.297Z,5.10
2023-05-13T09:03:04.189Z,5.63
2023-05-13T09:05:31.852Z,5.07
2023-05-13T09:07:58.773Z,5.13
2023-05-13T09:10:25.339Z,6.07
2023-05-13T09:12:55.310Z,5.67
2023-05-13T09:15:24.594Z,6.13
2023-05-13T09:17:54.680Z,6.17
2023-05-13T09:20:22.318Z,6.27
2023-05-13T09:22:51.899Z,5.60
2023-05-13T09:25:20.362Z,5.90
2023-05-13T09:27:49.544Z,5.57
2023-05-13T09:30:16.192Z,6.13
2023-05-13T09:32:43.223Z,5.57
2023-05-13T09:35:11.817Z,5.20
2023-05-13T09:37:38.477Z,4.97
2023-05-13T09:40:06.120Z,4.53
2023-05-13T09:42:33.104Z,4.67
2023-05-13T09:45:05.240Z,5.50
2023-05-13T09:47:31.769Z,4.90
2023-05-13T09:49:58.377Z,5.00
2023-05-13T09:52:24.847Z,4.30
2023-05-13T09:54:51.333Z,4.50
2023-05-13T09:57:17.783Z,4.83
2023-05-13T09:59:44.191Z,4.73
2023-05-13T10:02:13.009Z,4.20
2023-05-13T10:04:40.082Z,4.77
2023-05-13T10:07:08.600Z,4.00
2023-05-13T10:09:39.434Z,4.37
2023-05-13T10:12:07.948Z,4.07
2023-05-13T10:14:36.798Z,4.20
2023-05-13T10:17:03.365Z,4.33
2023-05-13T10:19:29.835Z,4.53
2023-05-13T10:21:57.547Z,4.30
2023-05-13T10:24:24.542Z,4.60
2023-05-13T10:26:52.780Z,4.20
2023-05-13T10:29:19.388Z,4.57
2023-05-13T10:31:47.702Z,3.73
2023-05-13T10:34:14.298Z,4.13
2023-05-13T10:37:10.195Z,4.77
2023-05-13T10:40:14.339Z,5.10
2023-05-13T10:42:43.077Z,4.10
2023-05-13T10:45:10.510Z,4.40
2023-05-13T10:47:37.800Z,3.70
2023-05-13T10:50:23.333Z,4.53
2023-05-13T10:52:51.075Z,4.23
2023-05-13T10:55:19.825Z,4.30
2023-05-13T10:58:07.895Z,3.80
2023-05-13T11:00:34.618Z,4.10
2023-05-13T11:03:10.323Z,3.97
2023-05-13T11:05:58.841Z,4.73
2023-05-13T11:08:46.046Z,4.03
2023-05-13T11:11:21.505Z,4.07
2023-05-13T11:14:17.723Z,4.53
2023-05-13T11:16:48.207Z,4.37
2023-05-13T11:19:28.283Z,3.97
2023-05-13T11:21:57.301Z,3.80
2023-05-13T11:24:24.803Z,3.87
2023-05-13T11:26:54.263Z,3.50
2023-05-13T11:29:40.124Z,4.27
2023-05-13T11:32:07.160Z,3.73
2023-05-13T11:34:34.362Z,3.83
2023-05-13T11:37:03.796Z,3.73
2023-05-13T11:39:31.357Z,4.03
2023-05-13T11:41:57.861Z,3.73
2023-05-13T11:44:25.697Z,4.20
2023-05-13T11:46:59.866Z,4.30
2023-05-13T11:49:33.414Z,4.73
2023-05-13T11:52:11.562Z,4.10
2023-05-13T11:54:49.107Z,3.93
2023-05-13T11:57:20.263Z,4.10
2023-05-13T12:00:08.429Z,4.30
2023-05-13T12:02:37.771Z,4.23
2023-05-13T12:05:09.150Z,4.73
2023-05-13T12:07:37.493Z,4.40
2023-05-13T12:10:05.406Z,4.43
2023-05-13T12:12:35.254Z,3.87
2023-05-13T12:15:08.016Z,4.80
2023-05-13T12:17:35.077Z,6.17
2023-05-13T12:20:21.522Z,4.10
2023-05-13T12:22:48.216Z,4.17
2023-05-13T12:25:33.193Z,5.00
2023-05-13T12:28:06.248Z,4.90
2023-05-13T12:30:41.040Z,4.03
2023-05-13T12:33:15.663Z,5.47
2023-05-13T12:35:43.255Z,4.37
2023-05-13T12:38:16.088Z,3.90
2023-05-13T12:40:42.511Z,3.73
2023-05-13T12:43:11.408Z,4.00
2023-05-13T12:45:42.624Z,3.90
2023-05-13T12:48:11.914Z,4.37
2023-05-13T12:50:38.518Z,3.70
2023-05-13T12:53:05.787Z,3.90
2023-05-13T12:55:32.398Z,3.77
2023-05-13T12:58:03.763Z,3.90
2023-05-13T13:00:30.926Z,3.43
2023-05-13T13:02:57.975Z,3.97
2023-05-13T13:05:25.266Z,3.93
2023-05-13T13:07:51.911Z,3.43
2023-05-13T13:10:18.513Z,3.47
2023-05-13T13:12:44.935Z,3.40
2023-05-13T13:15:12.211Z,2.90
2023-05-13T13:17:38.930Z,3.47
2023-05-13T13:20:07.347Z,2.93
2023-05-13T13:22:34.850Z,3.10
2023-05-13T13:25:01.407Z,3.00
2023-05-13T13:27:27.890Z,3.20
2023-05-13T13:29:54.379Z,3.50
2023-05-13T13:32:20.961Z,3.70
2023-05-13T13:34:47.486Z,3.03
2023-05-13T13:37:14.031Z,3.00
2023-05-13T13:39:40.800Z,3.27
2023-05-13T13:42:07.553Z,2.93
2023-05-13T13:44:34.102Z,3.03
2023-05-13T13:47:00.606Z,2.97
2023-05-13T13:49:27.019Z,3.73
2023-05-13T13:51:53.564Z,3.07
2023-05-13T13:54:20.424Z,3.67
2023-05-13T13:56:48.263Z,3.60
2023-05-13T13:59:14.716Z,3.00
2023-05-13T14:01:41.332Z,3.20
2023-05-13T14:04:16.388Z,3.17
2023-05-13T14:06:44.667Z,3.30
2023-05-13T14:09:11.151Z,2.60
2023-05-13T14:11:37.761Z,3.60
2023-05-13T14:14:04.272Z,2.80
2023-05-13T14:16:30.882Z,3.50
2023-05-13T14:18:57.488Z,3.47
2023-05-13T14:21:24.059Z,3.07
2023-05-13T14:23:50.671Z,3.00
2023-05-13T14:26:17.337Z,3.80
2023-05-13T14:28:43.931Z,3.83
2023-05-13T14:31:10.438Z,3.50
2023-05-13T14:33:37.271Z,3.60
2023-05-13T14:36:04.087Z,3.70
2023-05-13T14:38:31.384Z,3.00
2023-05-13T14:40:58.350Z,3.20
2023-05-13T14:43:25.123Z,3.33
2023-05-13T14:45:51.690Z,3.93
2023-05-13T14:48:19.234Z,3.40
2023-05-13T14:50:46.667Z,3.97
2023-05-13T14:53:13.516Z,4.93
2023-05-13T14:55:39.970Z,5.10
2023-05-13T14:58:09.078Z,3.70
2023-05-13T15:00:39.632Z,3.47
2023-05-13T15:03:06.393Z,4.67
2023-05-13T15:05:32.998Z,8.97
2023-05-13T15:08:00.093Z,4.57
2023-05-13T15:10:26.596Z,4.20
2023-05-13T15:12:53.152Z,3.83
2023-05-13T15:15:19.711Z,3.93
2023-05-13T15:17:46.225Z,4.60
2023-05-13T15:20:12.837Z,3.80
2023-05-13T15:22:39.377Z,3.70
2023-05-13T15:25:06.656Z,3.47
2023-05-13T15:27:33.181Z,3.67
2023-05-13T15:29:59.760Z,3.60
2023-05-13T15:32:26.310Z,4.13
2023-05-13T15:34:52.738Z,4.60
2023-05-13T15:37:19.289Z,5.50
2023-05-13T15:39:45.761Z,4.50
2023-05-13T15:42:12.862Z,5.30
2023-05-13T15:44:39.405Z,4.50
2023-05-13T15:47:06.428Z,3.80
2023-05-13T15:49:36.441Z,3.87
2023-05-13T15:52:05.543Z,4.23
2023-05-13T15:54:33.933Z,4.07
2023-05-13T15:57:00.494Z,4.00
2023-05-13T15:59:26.982Z,4.00
2023-05-13T16:01:53.603Z,4.43
2023-05-13T16:04:20.390Z,4.27
2023-05-13T16:06:46.942Z,3.70
2023-05-13T16:09:13.461Z,3.63
2023-05-13T16:11:39.938Z,4.30
2023-05-13T16:14:07.684Z,4.10
2023-05-13T16:16:34.349Z,4.57
2023-05-13T16:19:03.663Z,3.90
2023-05-13T16:21:31.545Z,3.60
2023-05-13T16:23:58.164Z,3.43
2023-05-13T16:26:24.754Z,3.70
2023-05-13T16:28:51.627Z,3.20
2023-05-13T16:31:18.156Z,4.13
2023-05-13T16:33:44.656Z,3.50
2023-05-13T16:36:11.963Z,3.50
2023-05-13T16:38:41.258Z,4.57
2023-05-13T16:41:08.059Z,6.17
2023-05-13T16:43:34.490Z,4.30
2023-05-13T16:46:00.982Z,4.40
2023-05-13T16:48:27.565Z,3.90
2023-05-13T16:50:54.131Z,3.97
2023-05-13T16:53:22.341Z,4.20
2023-05-13T16:55:52.212Z,3.30
2023-05-13T16:58:18.781Z,3.73
2023-05-13T17:00:45.458Z,4.43
2023-05-13T17:03:13.454Z,3.80
2023-05-13T17:05:40.147Z,4.00
2023-05-13T17:08:06.673Z,3.80
2023-05-13T17:10:33.344Z,4.50
2023-05-13T17:12:59.814Z,4.23
2023-05-13T17:15:26.337Z,4.23
2023-05-13T17:17:52.814Z,3.53
2023-05-13T17:20:20.008Z,4.13
2023-05-13T17:22:47.473Z,3.30
2023-05-13T17:25:14.857Z,4.40
2023-05-13T17:27:41.412Z,3.40
2023-05-13T17:30:08.657Z,3.67
2023-05-13T17:32:35.588Z,4.33
2023-05-13T17:35:03.353Z,3.90
2023-05-13T17:37:29.779Z,3.83
2023-05-13T17:39:57.577Z,3.93
2023-05-13T17:42:23.996Z,8.37
2023-05-13T17:44:50.574Z,4.87
2023-05-13T17:47:17.184Z,5.20
2023-05-13T17:49:43.621Z,4.73
2023-05-13T17:52:10.053Z,3.97
2023-05-13T17:54:37.034Z,3.97
2023-05-13T17:57:03.776Z,4.30
2023-05-13T17:59:30.471Z,3.90
2023-05-13T18:01:56.975Z,4.00
2023-05-13T18:04:23.425Z,4.47
2023-05-13T18:06:50.009Z,4.10
2023-05-13T18:09:16.613Z,4.10
2023-05-13T18:11:43.183Z,3.93
2023-05-13T18:14:09.620Z,3.67
2023-05-13T18:16:36.192Z,4.00
2023-05-13T18:19:06.860Z,3.90
2023-05-13T18:21:33.449Z,4.80
2023-05-13T18:23:59.873Z,3.53
2023-05-13T18:26:26.624Z,4.00
2023-05-13T18:28:53.064Z,4.40
2023-05-13T18:31:19.544Z,4.40
2023-05-13T18:33:46.059Z,4.10
2023-05-13T18:36:12.555Z,4.67
2023-05-13T18:38:39.607Z,4.23
2023-05-13T18:41:06.262Z,4.40
2023-05-13T18:43:32.826Z,16.03
2023-05-13T18:45:59.358Z,10.67
2023-05-13T18:48:25.822Z,5.60
2023-05-13T18:50:53.065Z,4.43
2023-05-13T18:53:19.980Z,4.60
2023-05-13T18:55:46.555Z,4.83
2023-05-13T18:58:13.787Z,3.97
2023-05-13T19:00:40.298Z,4.23
2023-05-13T19:03:08.728Z,4.47
2023-05-13T19:05:35.447Z,4.67
2023-05-13T19:08:02.022Z,4.93
2023-05-13T19:10:28.495Z,4.50
2023-05-13T19:12:55.024Z,6.20
2023-05-13T19:15:22.771Z,4.90
2023-05-13T19:17:49.593Z,13.57
2023-05-13T19:20:16.979Z,6.70
2023-05-13T19:22:43.647Z,4.07
2023-05-13T19:25:13.135Z,4.17
2023-05-13T19:27:39.754Z,4.30
2023-05-13T19:30:07.114Z,4.33
2023-05-13T19:32:33.614Z,4.23
2023-05-13T19:35:01.090Z,4.07
2023-05-13T19:37:27.723Z,5.00
2023-05-13T19:39:54.145Z,8.77
2023-05-13T19:42:20.841Z,16.33
2023-05-13T19:44:47.531Z,7.13
2023-05-13T19:47:13.969Z,5.03
2023-05-13T19:49:40.532Z,4.50
2023-05-13T19:52:07.203Z,4.13
2023-05-13T19:54:33.626Z,4.40
2023-05-13T19:57:00.236Z,5.07
2023-05-13T19:59:27.609Z,5.23
2023-05-13T20:01:54.073Z,4.70
2023-05-13T20:04:20.532Z,4.70
2023-05-13T20:06:47.025Z,4.30
2023-05-13T20:09:14.417Z,5.03
2023-05-13T20:11:40.981Z,5.87
2023-05-13T20:14:07.553Z,6.80
2023-05-13T20:16:34.486Z,6.23
2023-05-13T20:19:01.024Z,7.57
2023-05-13T20:21:27.563Z,7.93
2023-05-13T20:23:53.985Z,6.57
2023-05-13T20:26:20.436Z,6.20
2023-05-13T20:28:47.723Z,5.67
2023-05-13T20:31:14.866Z,5.80
2023-05-13T20:33:41.892Z,6.20
2023-05-13T20:36:08.357Z,4.90
2023-05-13T20:38:34.908Z,5.33
2023-05-13T20:41:01.369Z,5.10
2023-05-13T20:43:27.866Z,5.50
2023-05-13T20:45:54.479Z,5.40
2023-05-13T20:48:21.276Z,5.83
2023-05-13T20:50:47.750Z,6.43
2023-05-13T20:53:14.385Z,5.67
2023-05-13T20:55:40.832Z,6.27
2023-05-13T20:58:07.227Z,5.93
2023-05-13T21:00:33.712Z,5.70
2023-05-13T21:03:00.413Z,4.87
2023-05-13T21:05:27.026Z,5.30
2023-05-13T21:07:54.026Z,5.17
2023-05-13T21:10:20.643Z,5.20
2023-05-13T21:12:48.028Z,5.47
2023-05-13T21:15:14.921Z,4.97
2023-05-13T21:17:41.401Z,5.57
2023-05-13T21:20:08.927Z,5.60
2023-05-13T21:22:35.404Z,5.73
2023-05-13T21:25:01.885Z,5.37
2023-05-13T21:27:28.334Z,5.80
2023-05-13T21:29:54.788Z,7.20
2023-05-13T21:32:21.266Z,5.57
2023-05-13T21:34:47.749Z,7.07
2023-05-13T21:37:14.451Z,5.90
2023-05-13T21:39:41.370Z,5.50
2023-05-13T21:42:08.017Z,5.83
2023-05-13T21:44:34.533Z,5.70
2023-05-13T21:47:00.975Z,5.30
2023-05-13T21:49:27.430Z,5.90
2023-05-13T21:51:53.909Z,6.63
2023-05-13T21:54:20.389Z,5.70
2023-05-13T21:56:46.946Z,6.50
2023-05-13T21:59:13.364Z,5.63
2023-05-13T22:01:39.811Z,7.70
2023-05-13T22:04:06.490Z,9.20
2023-05-13T22:06:33.541Z,8.70
2023-05-13T22:09:01.160Z,10.20
2023-05-13T22:11:27.854Z,8.33
2023-05-13T22:13:54.361Z,7.43
2023-05-13T22:16:20.947Z,7.13
2023-05-13T22:18:48.859Z,6.77
2023-05-13T22:21:15.594Z,7.30
2023-05-13T22:23:42.110Z,7.83
2023-05-13T22:26:08.534Z,7.63
2023-05-13T22:28:34.999Z,7.20
2023-05-13T22:31:01.493Z,8.07
2023-05-13T22:33:27.925Z,6.47
2023-05-13T22:35:54.639Z,6.50
2023-05-13T22:38:21.154Z,7.10
2023-05-13T22:40:47.585Z,7.17
2023-05-13T22:43:14.073Z,6.77
2023-05-13T22:45:40.603Z,7.23
2023-05-13T22:48:07.872Z,7.23
2023-05-13T22:50:34.399Z,6.57
2023-05-13T22:53:01.020Z,7.13
2023-05-13T22:55:27.495Z,6.63
2023-05-13T22:57:53.914Z,6.30
2023-05-13T23:00:20.458Z,6.37
2023-05-13T23:02:47.042Z,6.23
2023-05-13T23:05:13.700Z,6.10
2023-05-13T23:07:40.231Z,6.80
2023-05-13T23:10:07.427Z,6.97
2023-05-13T23:12:34.161Z,7.20
2023-05-13T23:15:00.859Z,6.40
2023-05-13T23:17:27.513Z,7.60
2023-05-13T23:19:57.000Z,7.57
2023-05-13T23:22:23.733Z,7.20
2023-05-13T23:24:50.465Z,6.93
2023-05-13T23:27:17.208Z,6.17
2023-05-13T23:29:43.849Z,6.20
2023-05-13T23:32:10.823Z,6.70
2023-05-13T23:34:37.802Z,6.40
2023-05-13T23:37:07.299Z,6.60
2023-05-13T23:39:33.867Z,6.80
2023-05-13T23:42:00.537Z,6.17
2023-05-13T23:44:27.166Z,6.40
2023-05-13T23:46:53.806Z,7.10
2023-05-13T23:49:20.557Z,7.33
2023-05-13T23:51:47.224Z,7.57
2023-05-13T23:54:13.777Z,7.60
2023-05-13T23:56:40.402Z,7.40
2023-05-13T23:59:08.454Z,6.83
